Time;durP1;ratioP1;P1;durP2;ratioP2;P2;SDS_P1;SDS_P2;PMS_P1;PMS_P2;Temp;Humidity;BMP_temperature;BMP_pressure;BME280_temperature;BME280_humidity;BME280_pressure;Samples;Min_cycle;Max_cycle;Signal;HPM_P1;HPM_P2
2023/12/23 00:00:49;;;;;;;6.83;3.30;;;22.40;66.00;;;;;;5055129;28;20532;-96
2023/12/23 00:03:16;;;;;;;6.30;3.30;;;22.40;66.10;;;;;;5054797;28;20632;-96
2023/12/23 00:05:43;;;;;;;6.20;3.93;;;22.40;66.10;;;;;;5054704;28;21004;-95
2023/12/23 00:08:10;;;;;;;8.33;4.50;;;22.40;66.10;;;;;;5054791;28;20808;-95
2023/12/23 00:10:38;;;;;;;7.43;3.90;;;22.50;66.30;;;;;;5054869;28;20980;-95
2023/12/23 00:13:05;;;;;;;4.27;2.73;;;22.30;66.10;;;;;;5055033;28;20536;-95
2023/12/23 00:15:32;;;;;;;5.97;3.40;;;22.40;66.20;;;;;;5055154;28;20448;-96
2023/12/23 00:17:59;;;;;;;7.03;3.57;;;22.30;66.20;;;;;;5054723;28;20484;-96
2023/12/23 00:20:25;;;;;;;4.10;2.80;;;22.30;66.20;;;;;;5055110;28;20524;-96
2023/12/23 00:22:55;;;;;;;4.40;3.37;;;22.30;67.20;;;;;;5055802;28;20800;-95
2023/12/23 00:25:22;;;;;;;4.47;2.83;;;22.30;66.30;;;;;;5055027;28;20452;-94
2023/12/23 00:27:51;;;;;;;4.50;2.90;;;22.30;66.80;;;;;;5053987;28;20935;-96
2023/12/23 00:30:18;;;;;;;6.23;3.33;;;22.30;66.60;;;;;;5054864;28;20442;-96
2023/12/23 00:32:46;;;;;;;7.27;3.53;;;22.20;67.00;;;;;;5053848;28;20878;-96
2023/12/23 00:35:13;;;;;;;4.37;2.57;;;22.20;68.30;;;;;;5054087;28;20544;-94
2023/12/23 00:37:40;;;;;;;3.47;2.77;;;22.20;67.90;;;;;;5054366;28;20495;-96
2023/12/23 00:40:08;;;;;;;6.73;3.10;;;22.20;69.30;;;;;;5054289;28;20521;-94
2023/12/23 00:42:36;;;;;;;5.50;2.80;;;22.20;68.60;;;;;;5054175;28;20477;-95
2023/12/23 00:45:05;;;;;;;3.83;2.70;;;22.20;69.10;;;;;;5054182;28;20472;-96
2023/12/23 00:47:32;;;;;;;5.83;2.57;;;22.20;68.50;;;;;;5054238;28;20593;-96
2023/12/23 00:49:59;;;;;;;5.43;2.50;;;22.20;69.30;;;;;;5054275;28;20569;-94
2023/12/23 00:52:28;;;;;;;4.53;2.50;;;22.30;69.00;;;;;;5054143;28;20529;-95
2023/12/23 00:54:55;;;;;;;3.37;2.40;;;22.20;68.90;;;;;;5054460;28;20453;-95
2023/12/23 00:57:22;;;;;;;5.23;2.33;;;22.20;69.20;;;;;;5053828;28;20452;-94
2023/12/23 00:59:49;;;;;;;3.93;2.80;;;22.20;69.60;;;;;;5053728;28;20516;-96
2023/12/23 01:02:17;;;;;;;5.30;3.77;;;22.20;69.20;;;;;;5054171;28;20444;-94
2023/12/23 01:04:44;;;;;;;6.17;2.67;;;22.20;69.00;;;;;;5053778;28;20473;-96
2023/12/23 01:07:11;;;;;;;5.40;2.77;;;22.10;69.60;;;;;;5054422;28;20981;-96
2023/12/23 01:09:38;;;;;;;4.57;2.20;;;22.10;70.30;;;;;;5053324;28;20481;-95
2023/12/23 01:12:06;;;;;;;5.33;2.60;;;22.10;69.90;;;;;;5053803;28;20473;-96
2023/12/23 01:14:33;;;;;;;2.77;2.23;;;22.10;70.50;;;;;;5055005;28;20446;-94
2023/12/23 01:17:00;;;;;;;7.20;2.90;;;22.20;70.50;;;;;;5053723;28;20552;-94
2023/12/23 01:19:29;;;;;;;3.93;2.30;;;22.20;70.60;;;;;;5053972;28;20966;-95
2023/12/23 01:21:57;;;;;;;3.13;2.67;;;22.20;71.00;;;;;;5053720;28;20812;-94
2023/12/23 01:24:24;;;;;;;4.27;2.13;;;22.10;70.50;;;;;;5053521;28;21050;-94
2023/12/23 01:26:51;;;;;;;4.77;2.83;;;22.10;71.90;;;;;;5053949;28;20476;-96
2023/12/23 01:29:18;;;;;;;3.40;2.20;;;22.10;71.60;;;;;;5053894;28;20568;-96
2023/12/23 01:31:45;;;;;;;4.63;2.40;;;22.10;71.40;;;;;;5053515;28;20488;-94
2023/12/23 01:34:12;;;;;;;2.73;2.00;;;22.10;71.90;;;;;;5053856;28;20441;-96
2023/12/23 01:36:40;;;;;;;3.47;1.90;;;22.10;71.40;;;;;;5053755;28;20507;-94
2023/12/23 01:39:07;;;;;;;3.47;1.90;;;22.10;72.50;;;;;;5053631;28;20476;-94
2023/12/23 01:41:34;;;;;;;3.17;2.50;;;22.10;72.10;;;;;;5054310;28;20803;-96
2023/12/23 01:44:01;;;;;;;3.93;2.53;;;22.10;71.40;;;;;;5057040;28;20532;-96
2023/12/23 01:46:29;;;;;;;4.00;2.10;;;22.10;71.80;;;;;;5057441;28;20540;-96
2023/12/23 01:48:56;;;;;;;4.00;2.03;;;22.10;72.00;;;;;;5057356;28;20576;-94
2023/12/23 01:51:23;;;;;;;3.63;1.90;;;22.10;71.10;;;;;;5057448;28;20532;-94
2023/12/23 01:53:53;;;;;;;3.83;1.90;;;22.10;70.90;;;;;;5057649;28;20506;-95
2023/12/23 01:56:20;;;;;;;1.87;1.67;;;22.10;71.10;;;;;;5057277;28;20541;-96
2023/12/23 01:58:47;;;;;;;4.47;2.00;;;22.10;70.60;;;;;;5057338;28;20472;-94
2023/12/23 02:01:14;;;;;;;2.97;1.83;;;22.10;70.50;;;;;;5057408;28;21017;-94
2023/12/23 02:03:41;;;;;;;4.33;2.00;;;22.20;69.90;;;;;;5058104;28;20520;-94
2023/12/23 02:06:09;;;;;;;2.67;1.80;;;22.20;70.50;;;;;;5057392;28;20533;-96
2023/12/23 02:08:36;;;;;;;3.30;1.80;;;22.10;69.70;;;;;;5039129;28;20475;-94
2023/12/23 02:11:06;;;;;;;2.37;1.60;;;22.10;70.20;;;;;;5057067;28;20556;-96
2023/12/23 02:13:40;;;;;;;4.20;2.10;;;22.10;69.80;;;;;;5057316;28;20540;-96
2023/12/23 02:16:09;;;;;;;3.70;1.87;;;22.10;69.00;;;;;;5056903;28;20522;-94
2023/12/23 02:18:36;;;;;;;1.90;1.60;;;22.10;68.70;;;;;;5057000;28;20500;-96
2023/12/23 02:21:05;;;;;;;3.00;1.90;;;22.10;68.90;;;;;;5056927;28;20811;-96
2023/12/23 02:23:32;;;;;;;2.50;1.93;;;22.20;69.30;;;;;;5056866;28;20467;-96
2023/12/23 02:26:01;;;;;;;3.03;1.97;;;22.10;70.00;;;;;;5057822;28;20476;-94
2023/12/23 02:28:28;;;;;;;3.83;2.00;;;22.10;70.80;;;;;;5057326;28;20524;-96
2023/12/23 02:30:56;;;;;;;2.70;1.63;;;22.10;68.70;;;;;;5056969;28;20441;-96
2023/12/23 02:33:23;;;;;;;2.60;1.70;;;22.10;67.70;;;;;;5057074;28;20865;-96
2023/12/23 02:35:52;;;;;;;2.90;1.57;;;22.20;68.80;;;;;;5057151;28;20465;-96
2023/12/23 02:38:22;;;;;;;3.47;2.10;;;22.10;68.70;;;;;;5056612;28;20445;-94
2023/12/23 02:40:50;;;;;;;2.60;1.37;;;22.10;67.00;;;;;;5057359;28;20465;-94
2023/12/23 02:43:17;;;;;;;3.17;2.00;;;22.10;66.90;;;;;;5056309;28;20437;-95
2023/12/23 02:45:44;;;;;;;2.40;1.87;;;22.10;67.80;;;;;;5056556;28;20932;-96
2023/12/23 02:48:11;;;;;;;2.23;1.40;;;22.10;66.90;;;;;;5056346;28;20447;-96
2023/12/23 02:50:38;;;;;;;3.40;1.67;;;22.10;66.80;;;;;;5056740;28;20485;-96
2023/12/23 02:53:07;;;;;;;2.10;1.60;;;22.10;66.40;;;;;;5056415;28;20551;-95
2023/12/23 02:55:36;;;;;;;2.07;1.40;;;22.10;67.00;;;;;;5056454;28;20447;-95
2023/12/23 02:58:03;;;;;;;3.50;1.40;;;22.10;66.20;;;;;;5056466;28;20913;-96
2023/12/23 03:00:30;;;;;;;3.37;1.73;;;22.10;66.20;;;;;;5056399;28;20440;-94
2023/12/23 03:02:57;;;;;;;3.00;1.20;;;22.10;66.10;;;;;;5056177;28;20469;-96
2023/12/23 03:05:24;;;;;;;3.20;1.33;;;22.10;65.70;;;;;;5056922;28;20767;-96
2023/12/23 03:07:51;;;;;;;3.43;1.67;;;22.10;65.60;;;;;;5056050;28;20437;-96
2023/12/23 03:10:18;;;;;;;2.07;1.20;;;22.10;65.60;;;;;;5056345;28;20570;-94
2023/12/23 03:12:46;;;;;;;3.23;1.70;;;22.10;65.70;;;;;;5056385;28;20449;-94
2023/12/23 03:15:13;;;;;;;2.50;1.50;;;22.10;65.50;;;;;;5056363;28;20441;-96
2023/12/23 03:17:40;;;;;;;1.73;1.10;;;22.10;65.60;;;;;;5056448;28;20488;-96
2023/12/23 03:20:09;;;;;;;1.80;1.60;;;22.10;65.50;;;;;;5055703;28;20537;-96
2023/12/23 03:22:36;;;;;;;1.63;1.37;;;22.10;65.40;;;;;;5056792;28;20446;-95
2023/12/23 03:25:03;;;;;;;2.53;1.70;;;22.10;65.20;;;;;;5056096;28;20465;-96
2023/12/23 03:27:30;;;;;;;1.83;1.33;;;22.10;65.30;;;;;;5055612;28;20438;-94
2023/12/23 03:29:58;;;;;;;3.13;1.90;;;22.10;65.20;;;;;;5055610;28;20584;-95
2023/12/23 03:32:25;;;;;;;1.90;1.20;;;22.10;65.30;;;;;;5055694;28;20936;-95
2023/12/23 03:34:52;;;;;;;2.17;1.20;;;22.10;65.30;;;;;;5055756;28;20871;-95
2023/12/23 03:37:19;;;;;;;1.93;1.40;;;22.10;65.30;;;;;;5055519;28;20434;-94
2023/12/23 03:39:46;;;;;;;2.70;1.43;;;22.10;65.20;;;;;;5055614;28;20857;-94
2023/12/23 03:42:13;;;;;;;2.90;1.70;;;22.10;65.20;;;;;;5055906;28;20445;-94
2023/12/23 03:44:40;;;;;;;2.37;1.60;;;22.10;65.20;;;;;;5055941;28;20469;-96
2023/12/23 03:47:09;;;;;;;1.70;1.20;;;22.10;65.30;;;;;;5055086;28;20477;-96
2023/12/23 03:49:36;;;;;;;2.33;1.20;;;22.10;65.20;;;;;;5055340;28;20499;-95
2023/12/23 03:52:03;;;;;;;1.90;1.30;;;22.20;65.40;;;;;;5054894;28;20484;-95
2023/12/23 03:54:29;;;;;;;2.60;1.10;;;22.10;65.30;;;;;;5055123;28;20440;-94
2023/12/23 03:56:56;;;;;;;1.80;1.20;;;22.10;65.20;;;;;;5055235;28;20532;-95
2023/12/23 03:59:23;;;;;;;1.70;1.30;;;22.10;65.20;;;;;;5055820;28;20472;-96
2023/12/23 04:01:50;;;;;;;2.33;1.43;;;22.10;65.20;;;;;;5055449;28;20441;-94
2023/12/23 04:04:20;;;;;;;1.50;1.23;;;22.10;65.10;;;;;;5054999;28;20802;-95
2023/12/23 04:06:47;;;;;;;2.73;1.53;;;22.10;65.20;;;;;;5055750;28;20495;-95
2023/12/23 04:09:13;;;;;;;2.70;1.10;;;22.10;65.10;;;;;;5055286;28;20556;-95
2023/12/23 04:15:05;;;;;;;1.47;1.17;;;22.10;65.10;;;;;;5054749;28;20661;-94
2023/12/23 04:17:32;;;;;;;1.30;0.90;;;22.10;65.20;;;;;;5055262;28;20457;-96
2023/12/23 04:20:00;;;;;;;1.30;1.10;;;22.10;65.20;;;;;;5054820;28;20445;-94
2023/12/23 04:22:27;;;;;;;3.00;1.27;;;22.10;65.20;;;;;;5054698;28;20441;-96
2023/12/23 04:24:54;;;;;;;1.97;1.43;;;22.10;65.10;;;;;;5054414;28;20434;-96
2023/12/23 04:27:21;;;;;;;1.97;1.03;;;22.20;65.40;;;;;;5054473;28;20441;-94
2023/12/23 04:29:48;;;;;;;2.00;1.43;;;22.10;65.20;;;;;;5054235;28;20473;-95
2023/12/23 04:32:15;;;;;;;1.57;1.27;;;22.10;65.20;;;;;;5054523;28;20812;-96
2023/12/23 04:34:42;;;;;;;1.43;1.10;;;22.10;65.20;;;;;;5054992;28;20528;-96
2023/12/23 04:37:10;;;;;;;1.97;1.00;;;22.10;65.20;;;;;;5054142;28;20469;-95
2023/12/23 04:39:37;;;;;;;1.83;1.40;;;22.20;65.30;;;;;;5054855;28;20496;-96
2023/12/23 04:42:04;;;;;;;2.13;1.30;;;22.10;65.20;;;;;;5054472;28;21039;-94
2023/12/23 04:44:31;;;;;;;2.07;1.13;;;22.10;65.20;;;;;;5055173;28;20441;-95
2023/12/23 04:46:58;;;;;;;4.40;1.20;;;22.10;65.20;;;;;;5054887;28;20992;-96
2023/12/23 04:49:25;;;;;;;1.70;0.90;;;22.20;65.40;;;;;;5054006;28;20477;-94
2023/12/23 04:51:52;;;;;;;1.93;1.20;;;22.20;65.40;;;;;;5054249;28;20446;-94
2023/12/23 04:54:20;;;;;;;2.10;1.33;;;22.10;65.20;;;;;;5054166;28;20473;-95
2023/12/23 04:56:47;;;;;;;1.40;1.20;;;22.10;65.20;;;;;;5054188;28;20477;-96
2023/12/23 04:59:14;;;;;;;2.17;1.30;;;22.10;65.20;;;;;;5054592;28;20445;-94
2023/12/23 05:01:41;;;;;;;1.90;1.20;;;22.10;65.20;;;;;;5053986;28;20524;-95
2023/12/23 05:04:08;;;;;;;1.83;1.00;;;22.10;65.20;;;;;;5054888;28;20469;-95
2023/12/23 05:06:35;;;;;;;1.97;0.90;;;22.10;65.20;;;;;;5053704;28;20444;-95
2023/12/23 05:09:02;;;;;;;1.40;1.10;;;22.10;65.10;;;;;;5054298;28;20808;-94
2023/12/23 05:11:30;;;;;;;1.20;0.90;;;22.10;65.10;;;;;;5053902;28;20520;-96
2023/12/23 05:13:57;;;;;;;2.63;1.17;;;22.10;65.00;;;;;;5053957;28;20808;-95
2023/12/23 05:16:25;;;;;;;1.90;1.10;;;22.10;65.10;;;;;;5038092;28;20988;-95
2023/12/23 05:18:52;;;;;;;1.73;1.30;;;22.20;65.20;;;;;;5054235;28;20444;-96
2023/12/23 05:21:19;;;;;;;3.00;1.27;;;22.20;65.20;;;;;;5053896;28;20445;-95
2023/12/23 05:23:45;;;;;;;1.73;1.33;;;22.20;65.20;;;;;;5053945;28;20881;-95
2023/12/23 05:26:12;;;;;;;1.43;1.00;;;22.20;65.20;;;;;;5054213;28;20552;-94
2023/12/23 05:28:41;;;;;;;1.50;1.10;;;22.20;65.20;;;;;;5053434;28;20500;-95
2023/12/23 05:31:08;;;;;;;2.53;1.17;;;22.20;65.20;;;;;;5053669;28;20512;-94
2023/12/23 05:33:34;;;;;;;1.53;1.10;;;22.20;65.20;;;;;;5053540;28;21029;-96
2023/12/23 05:36:01;;;;;;;2.03;0.90;;;22.20;65.10;;;;;;5053575;28;20447;-96
2023/12/23 05:38:28;;;;;;;1.80;1.10;;;22.20;65.20;;;;;;5053563;28;20536;-96
2023/12/23 05:40:56;;;;;;;1.70;1.30;;;22.20;65.10;;;;;;5053517;28;20497;-94
2023/12/23 05:43:23;;;;;;;1.67;1.20;;;22.20;65.20;;;;;;5054360;28;20452;-96
2023/12/23 05:45:51;;;;;;;1.93;1.37;;;22.20;65.10;;;;;;5054539;28;20551;-95
2023/12/23 05:48:18;;;;;;;2.17;1.40;;;22.20;65.20;;;;;;5053313;28;20533;-94
2023/12/23 05:50:45;;;;;;;1.63;1.13;;;22.20;65.20;;;;;;5053698;28;20985;-96
2023/12/23 05:53:12;;;;;;;2.00;1.10;;;22.20;65.10;;;;;;5053583;28;20450;-96
2023/12/23 05:55:40;;;;;;;1.40;1.10;;;22.20;65.20;;;;;;5053758;28;20533;-96
2023/12/23 05:58:07;;;;;;;1.40;1.10;;;22.20;65.20;;;;;;5052076;28;20481;-95
2023/12/23 06:00:34;;;;;;;1.33;0.90;;;22.20;65.10;;;;;;5053727;28;21000;-96
2023/12/23 06:03:04;;;;;;;1.50;1.13;;;22.20;65.10;;;;;;5052724;28;20442;-96
2023/12/23 06:05:31;;;;;;;1.20;0.90;;;22.20;65.10;;;;;;5053281;28;20464;-96
2023/12/23 06:07:57;;;;;;;1.60;1.20;;;22.20;65.10;;;;;;5053735;28;20540;-96
2023/12/23 06:10:24;;;;;;;1.93;1.10;;;22.20;65.10;;;;;;5053618;28;20507;-96
2023/12/23 06:12:51;;;;;;;2.70;1.10;;;22.20;65.00;;;;;;5056937;28;20445;-96
2023/12/23 06:15:18;;;;;;;3.70;1.10;;;22.20;65.10;;;;;;5053686;28;20438;-96
2023/12/23 06:17:48;;;;;;;2.30;1.30;;;22.20;65.10;;;;;;5053180;28;20530;-95
2023/12/23 06:20:19;;;;;;;1.30;0.90;;;22.20;65.10;;;;;;5054405;28;20444;-94
2023/12/23 06:22:46;;;;;;;1.70;1.60;;;22.20;65.00;;;;;;5054371;28;20457;-96
2023/12/23 06:25:13;;;;;;;1.70;0.93;;;22.20;65.10;;;;;;5053517;28;20454;-96
2023/12/23 06:27:40;;;;;;;6.03;1.10;;;22.30;65.10;;;;;;5053644;28;20479;-96
2023/12/23 06:30:08;;;;;;;1.40;0.90;;;22.30;65.10;;;;;;5055940;28;20530;-96
2023/12/23 06:32:35;;;;;;;1.40;0.87;;;22.30;65.10;;;;;;5057655;28;20449;-96
2023/12/23 06:35:02;;;;;;;1.50;0.90;;;22.30;65.10;;;;;;5057913;28;20445;-96
2023/12/23 06:37:31;;;;;;;2.60;1.00;;;22.30;65.10;;;;;;5057376;28;20456;-96
2023/12/23 06:39:59;;;;;;;1.23;0.93;;;22.30;65.10;;;;;;5058015;28;20476;-96
2023/12/23 06:42:27;;;;;;;1.77;1.03;;;22.30;65.10;;;;;;5057371;28;20430;-96
2023/12/23 06:44:57;;;;;;;1.60;1.13;;;22.30;65.90;;;;;;5057982;28;20445;-96
2023/12/23 06:47:27;;;;;;;2.20;1.10;;;22.30;65.00;;;;;;5057187;28;20856;-92
2023/12/23 06:49:54;;;;;;;1.87;1.00;;;22.30;65.00;;;;;;5059161;28;20983;-93
2023/12/23 06:52:21;;;;;;;4.67;1.33;;;22.30;65.00;;;;;;5059019;28;20432;-92
2023/12/23 06:54:48;;;;;;;1.90;1.20;;;22.30;64.40;;;;;;5056415;28;20437;-92
2023/12/23 06:57:15;;;;;;;1.83;0.90;;;22.30;64.50;;;;;;5056995;28;20483;-94
2023/12/23 06:59:45;;;;;;;1.67;0.90;;;22.30;64.90;;;;;;5055695;28;20448;-93
2023/12/23 07:02:13;;;;;;;2.57;1.20;;;22.30;64.90;;;;;;5056120;28;20430;-93
2023/12/23 07:04:41;;;;;;;1.30;1.00;;;22.30;65.00;;;;;;5055743;28;20442;-93
2023/12/23 07:07:10;;;;;;;3.20;1.30;;;22.30;65.00;;;;;;5055769;28;20445;-93
2023/12/23 07:09:36;;;;;;;2.90;1.10;;;22.30;65.00;;;;;;5056236;28;20449;-92
2023/12/23 07:12:06;;;;;;;1.37;0.80;;;22.40;65.20;;;;;;5055562;28;20549;-93
2023/12/23 07:14:32;;;;;;;3.20;1.10;;;22.40;65.20;;;;;;5055564;28;20445;-93
2023/12/23 07:16:59;;;;;;;1.17;0.83;;;22.30;65.20;;;;;;5055525;28;20508;-96
2023/12/23 07:19:26;;;;;;;1.77;0.90;;;22.30;65.20;;;;;;5055568;28;20532;-93
2023/12/23 07:21:53;;;;;;;1.40;1.20;;;22.30;65.20;;;;;;5055450;28;20448;-93
2023/12/23 07:24:20;;;;;;;1.63;1.00;;;22.30;65.30;;;;;;5055383;28;20446;-93
2023/12/23 07:26:47;;;;;;;2.00;1.13;;;22.30;65.40;;;;;;5055489;28;20441;-93
2023/12/23 07:29:16;;;;;;;1.73;1.37;;;22.40;65.50;;;;;;5055171;28;20499;-92
2023/12/23 07:31:43;;;;;;;2.70;1.10;;;22.40;65.50;;;;;;5054933;28;20473;-92
2023/12/23 07:34:10;;;;;;;1.90;1.20;;;22.40;65.50;;;;;;5055168;28;20473;-93
2023/12/23 07:36:37;;;;;;;1.27;0.87;;;22.50;65.70;;;;;;5055639;28;20984;-94
2023/12/23 07:39:05;;;;;;;1.53;1.00;;;22.40;65.60;;;;;;5055340;28;20530;-93
2023/12/23 07:41:31;;;;;;;1.53;0.90;;;22.40;65.50;;;;;;5055736;28;20445;-93
2023/12/23 07:43:58;;;;;;;2.33;1.50;;;22.40;65.70;;;;;;5055269;28;20445;-95
2023/12/23 07:46:27;;;;;;;1.47;1.00;;;22.50;66.70;;;;;;5055136;28;20905;-94
2023/12/23 07:48:53;;;;;;;1.33;0.90;;;22.40;65.80;;;;;;5055042;28;20532;-95
2023/12/23 07:51:21;;;;;;;1.50;0.90;;;22.50;65.90;;;;;;5055172;28;20516;-93
2023/12/23 07:53:48;;;;;;;1.83;0.90;;;22.40;65.80;;;;;;5054741;28;20924;-93
2023/12/23 07:56:14;;;;;;;1.27;0.90;;;22.40;65.60;;;;;;5055411;28;20437;-92
2023/12/23 07:58:41;;;;;;;1.40;1.00;;;22.40;65.80;;;;;;5055671;28;20441;-93
2023/12/23 08:01:08;;;;;;;1.30;0.93;;;22.40;65.70;;;;;;5056636;28;20955;-96
2023/12/23 08:03:37;;;;;;;2.03;1.00;;;22.40;65.90;;;;;;5056009;28;20441;-95
2023/12/23 08:06:15;;;;;;;2.23;0.80;;;22.40;65.70;;;;;;5056725;28;20544;-96
2023/12/23 08:08:42;;;;;;;2.10;0.90;;;22.40;62.50;;;;;;5072678;22;20563;-91
2023/12/23 08:11:09;;;;;;;2.33;1.37;;;22.40;64.90;;;;;;5056550;28;20488;-95
2023/12/23 08:13:36;;;;;;;1.57;1.00;;;22.40;63.60;;;;;;5062090;28;20476;-93
2023/12/23 08:16:03;;;;;;;6.10;0.90;;;22.40;64.80;;;;;;5041918;28;20968;-94
2023/12/23 08:18:33;;;;;;;5.63;1.10;;;22.40;64.70;;;;;;5063417;28;20513;-94
2023/12/23 08:25:18;;;;;;;1.60;1.10;;;22.40;64.70;;;;;;5032921;22;20511;-93
2023/12/23 08:27:53;;;;;;;3.37;0.97;;;22.40;64.90;;;;;;5062343;28;20477;-96
2023/12/23 08:30:21;;;;;;;3.83;1.40;;;22.40;65.10;;;;;;5060539;28;20447;-96
2023/12/23 08:32:48;;;;;;;1.40;1.00;;;22.40;65.10;;;;;;5059983;28;20445;-94
2023/12/23 08:35:15;;;;;;;1.23;0.90;;;22.40;65.20;;;;;;5044424;28;20529;-96
2023/12/23 08:37:44;;;;;;;5.40;1.10;;;22.40;65.10;;;;;;5059512;28;20491;-94
2023/12/23 08:40:18;;;;;;;1.40;1.03;;;22.40;65.20;;;;;;5041781;28;20449;-94
2023/12/23 08:42:47;;;;;;;1.97;1.00;;;22.40;65.20;;;;;;5064146;28;20465;-93
2023/12/23 08:45:15;;;;;;;2.13;1.27;;;22.40;65.20;;;;;;5060488;28;20446;-93
2023/12/23 08:47:43;;;;;;;4.17;1.07;;;22.40;65.20;;;;;;5064815;28;20536;-96
2023/12/23 08:50:13;;;;;;;3.20;1.00;;;22.40;65.20;;;;;;5058586;28;20526;-93
2023/12/23 08:52:41;;;;;;;4.50;0.90;;;22.40;65.20;;;;;;5060995;28;20519;-94
2023/12/23 08:55:15;;;;;;;2.97;1.37;;;22.50;65.40;;;;;;5057455;28;20520;-94
2023/12/23 08:57:46;;;;;;;4.83;1.03;;;22.40;65.20;;;;;;5057469;28;20459;-93
2023/12/23 09:00:18;;;;;;;1.63;0.93;;;22.50;65.40;;;;;;5058556;28;20901;-94
2023/12/23 09:02:45;;;;;;;2.30;1.00;;;22.40;65.20;;;;;;5059999;28;20832;-97
2023/12/23 09:05:13;;;;;;;1.40;0.77;;;22.50;65.40;;;;;;5045384;28;20437;-93
2023/12/23 09:07:43;;;;;;;1.57;1.00;;;22.40;65.20;;;;;;5061752;28;20445;-94
2023/12/23 09:10:12;;;;;;;1.80;0.80;;;22.40;65.20;;;;;;5062461;28;20531;-94
2023/12/23 09:12:41;;;;;;;2.40;1.00;;;22.40;65.20;;;;;;5061213;28;20579;-93
2023/12/23 09:15:09;;;;;;;1.60;1.10;;;22.40;65.20;;;;;;5058498;28;20528;-93
2023/12/23 09:17:38;;;;;;;1.50;0.90;;;22.40;65.20;;;;;;5062101;28;20448;-93
2023/12/23 09:20:11;;;;;;;3.13;1.23;;;22.40;65.20;;;;;;5061558;28;20940;-94
2023/12/23 09:22:40;;;;;;;2.20;1.33;;;22.40;65.20;;;;;;5060218;28;20439;-93
2023/12/23 09:25:07;;;;;;;2.57;1.13;;;22.40;65.20;;;;;;5058526;28;20503;-93
2023/12/23 09:27:38;;;;;;;2.67;1.10;;;22.50;65.30;;;;;;5057156;28;20480;-93
2023/12/23 09:30:06;;;;;;;1.80;1.30;;;22.50;65.30;;;;;;5058772;28;20512;-93
2023/12/23 09:32:36;;;;;;;2.37;1.00;;;22.50;65.30;;;;;;5044436;28;20477;-96
2023/12/23 09:35:05;;;;;;;2.00;1.00;;;22.50;65.30;;;;;;5063306;28;20445;-93
2023/12/23 09:37:32;;;;;;;2.03;0.90;;;22.50;65.20;;;;;;5059776;28;20483;-94
2023/12/23 09:40:01;;;;;;;1.67;1.03;;;22.50;65.20;;;;;;5060837;28;20964;-94
2023/12/23 09:42:29;;;;;;;1.60;0.90;;;22.50;65.20;;;;;;5062381;28;20461;-96
2023/12/23 09:44:58;;;;;;;1.87;1.27;;;22.50;65.20;;;;;;5060609;28;20452;-94
2023/12/23 09:50:36;;;;;;;1.70;1.00;;;22.50;65.10;;;;;;5061570;28;20440;-96
2023/12/23 09:53:07;;;;;;;1.40;0.90;;;22.60;65.30;;;;;;5058734;28;20445;-96
2023/12/23 09:55:35;;;;;;;1.57;1.00;;;22.60;65.30;;;;;;5061528;28;20433;-96
2023/12/23 09:58:03;;;;;;;1.60;1.40;;;22.50;65.20;;;;;;5061662;28;20513;-93
2023/12/23 10:00:33;;;;;;;1.67;1.00;;;22.50;65.10;;;;;;5060671;28;20441;-94
2023/12/23 10:03:00;;;;;;;3.70;1.20;;;22.50;65.10;;;;;;5061706;28;21066;-94
2023/12/23 10:05:29;;;;;;;1.70;0.90;;;22.50;65.10;;;;;;5063315;28;20443;-96
2023/12/23 10:07:57;;;;;;;1.30;1.00;;;22.50;65.00;;;;;;5064039;28;20467;-93
2023/12/23 10:10:25;;;;;;;1.70;1.23;;;22.60;65.20;;;;;;5047593;28;20508;-94
2023/12/23 10:12:51;;;;;;;1.60;1.03;;;22.50;65.10;;;;;;5041690;28;20902;-92
2023/12/23 10:15:17;;;;;;;1.70;1.00;;;22.50;65.00;;;;;;5058744;28;20445;-92
2023/12/23 10:17:46;;;;;;;1.50;1.00;;;22.50;65.00;;;;;;5041024;28;20452;-95
2023/12/23 10:20:13;;;;;;;1.50;1.03;;;22.50;65.00;;;;;;5059014;28;20974;-96
2023/12/23 10:22:43;;;;;;;2.07;1.20;;;22.60;65.20;;;;;;5057886;28;20441;-92
2023/12/23 10:25:10;;;;;;;1.50;1.00;;;22.50;65.90;;;;;;5059472;28;20447;-93
2023/12/23 10:27:41;;;;;;;1.20;0.80;;;22.60;65.20;;;;;;5058955;28;20476;-92
2023/12/23 10:30:10;;;;;;;1.20;0.90;;;22.60;65.20;;;;;;5060557;28;20433;-95
2023/12/23 10:32:38;;;;;;;1.40;0.90;;;22.50;65.10;;;;;;5058809;28;20849;-93
2023/12/23 10:35:15;;;;;;;1.40;0.90;;;22.50;65.10;;;;;;5059121;28;20477;-93
2023/12/23 10:37:43;;;;;;;3.70;1.37;;;22.50;65.00;;;;;;5060521;28;20437;-92
2023/12/23 10:40:17;;;;;;;1.63;1.00;;;22.50;65.10;;;;;;5059113;28;20449;-93
2023/12/23 10:42:46;;;;;;;1.50;1.00;;;22.50;65.10;;;;;;5060628;28;20461;-92
2023/12/23 10:45:13;;;;;;;1.50;0.90;;;22.50;65.00;;;;;;5060068;28;20528;-92
2023/12/23 10:47:41;;;;;;;1.60;1.00;;;22.60;65.20;;;;;;5061015;28;20488;-92
2023/12/23 10:50:11;;;;;;;1.30;0.80;;;22.50;65.00;;;;;;5060398;28;20445;-92
2023/12/23 10:52:38;;;;;;;1.20;0.80;;;22.50;65.10;;;;;;5059280;28;20481;-93
2023/12/23 10:55:06;;;;;;;1.87;1.20;;;22.50;65.00;;;;;;5059973;28;20477;-96
2023/12/23 10:57:36;;;;;;;1.57;0.83;;;22.50;65.00;;;;;;5059536;28;20473;-93
2023/12/23 11:00:05;;;;;;;1.47;0.90;;;22.60;65.20;;;;;;5057825;28;20524;-92
2023/12/23 11:02:34;;;;;;;1.40;0.90;;;22.60;65.10;;;;;;5058942;28;20453;-92
2023/12/23 11:05:06;;;;;;;1.70;1.00;;;22.60;65.10;;;;;;5058767;28;20438;-92
2023/12/23 11:07:39;;;;;;;1.27;0.90;;;22.60;65.10;;;;;;5061871;28;20849;-92
2023/12/23 11:10:06;;;;;;;1.30;0.80;;;22.60;65.10;;;;;;5060702;28;20441;-96
2023/12/23 11:12:35;;;;;;;1.93;1.20;;;22.60;65.00;;;;;;5062682;28;20488;-92
2023/12/23 11:15:03;;;;;;;1.40;1.00;;;22.70;65.20;;;;;;5061773;28;20925;-93
2023/12/23 11:17:33;;;;;;;1.60;0.87;;;22.70;65.10;;;;;;5060764;28;20488;-96
2023/12/23 11:20:01;;;;;;;1.60;0.90;;;22.60;65.00;;;;;;5062214;28;20449;-96
2023/12/23 11:22:29;;;;;;;2.13;1.00;;;22.60;65.00;;;;;;5063295;28;20460;-96
2023/12/23 11:25:00;;;;;;;1.50;0.70;;;22.60;65.10;;;;;;5061139;28;20437;-96
2023/12/23 11:27:31;;;;;;;1.50;0.83;;;22.60;65.00;;;;;;5061159;28;20568;-94
2023/12/23 11:30:04;;;;;;;1.50;0.90;;;22.60;65.00;;;;;;5061746;28;20446;-96
2023/12/23 11:32:36;;;;;;;2.60;0.80;;;22.60;65.00;;;;;;5062316;28;20476;-94
2023/12/23 11:35:06;;;;;;;1.20;0.80;;;22.60;65.80;;;;;;5062910;28;20433;-92
2023/12/23 11:37:53;;;;;;;1.80;1.00;;;22.60;65.00;;;;;;5059306;28;20447;-93
2023/12/23 11:40:22;;;;;;;1.30;0.90;;;22.60;64.90;;;;;;5058675;28;20444;-92
2023/12/23 11:42:53;;;;;;;1.50;0.90;;;22.60;65.00;;;;;;5060111;28;20500;-96
2023/12/23 11:45:20;;;;;;;1.30;0.93;;;22.70;65.00;;;;;;5059256;28;20489;-91
2023/12/23 11:47:47;;;;;;;1.70;1.00;;;22.70;65.10;;;;;;5058563;28;20445;-93
2023/12/23 11:50:14;;;;;;;1.93;1.10;;;22.70;65.10;;;;;;5057330;28;20445;-92
2023/12/23 11:52:41;;;;;;;1.90;1.10;;;22.70;65.90;;;;;;5057029;28;21023;-92
2023/12/23 11:55:09;;;;;;;1.30;0.90;;;22.60;64.90;;;;;;5057196;28;20993;-96
2023/12/23 11:57:37;;;;;;;1.20;0.80;;;22.60;64.90;;;;;;5039775;28;20448;-92
2023/12/23 12:00:05;;;;;;;1.43;1.10;;;22.60;64.90;;;;;;5055835;28;20525;-96
2023/12/23 12:02:32;;;;;;;2.13;0.80;;;22.60;64.90;;;;;;5056064;28;20484;-96
2023/12/23 12:04:59;;;;;;;1.40;0.80;;;22.60;64.90;;;;;;5057948;28;20484;-96
2023/12/23 12:07:27;;;;;;;1.47;1.00;;;22.60;64.90;;;;;;5057345;28;20529;-96
2023/12/23 12:09:53;;;;;;;1.60;1.00;;;22.60;64.90;;;;;;5058415;28;20438;-92
2023/12/23 12:12:21;;;;;;;1.60;0.80;;;22.60;64.90;;;;;;5056229;28;20563;-93
2023/12/23 12:14:49;;;;;;;1.27;0.83;;;22.70;65.00;;;;;;5039320;28;20532;-96
2023/12/23 12:17:16;;;;;;;1.40;0.80;;;22.60;64.90;;;;;;5056712;28;20483;-92
2023/12/23 12:19:43;;;;;;;1.20;0.80;;;22.60;64.90;;;;;;5056552;28;20942;-92
2023/12/23 12:22:10;;;;;;;1.87;1.17;;;22.70;65.00;;;;;;5056556;28;20495;-96
2023/12/23 12:24:38;;;;;;;1.20;0.80;;;22.60;64.80;;;;;;5056364;28;20804;-96
2023/12/23 12:27:06;;;;;;;1.23;0.80;;;22.70;64.90;;;;;;5055551;28;20484;-93
2023/12/23 12:29:33;;;;;;;1.20;0.70;;;22.70;64.90;;;;;;5055911;28;20473;-93
2023/12/23 12:32:01;;;;;;;1.20;0.70;;;22.70;64.90;;;;;;5056250;28;20568;-96
2023/12/23 12:34:29;;;;;;;1.20;0.90;;;22.80;65.00;;;;;;5056558;28;21016;-96
2023/12/23 12:36:57;;;;;;;1.60;1.10;;;22.70;64.90;;;;;;5056201;28;20460;-92
2023/12/23 12:39:24;;;;;;;2.27;0.90;;;22.70;64.90;;;;;;5054956;28;20441;-92
2023/12/23 12:41:52;;;;;;;1.17;0.70;;;22.70;64.90;;;;;;5055237;28;20469;-92
2023/12/23 12:44:21;;;;;;;1.20;0.67;;;22.70;64.90;;;;;;5055424;28;21002;-95
2023/12/23 12:46:53;;;;;;;1.60;0.77;;;22.70;64.80;;;;;;5054954;28;20441;-94
2023/12/23 12:49:23;;;;;;;1.87;1.00;;;22.80;65.00;;;;;;5054469;28;20445;-93
2023/12/23 12:51:51;;;;;;;1.50;0.90;;;22.80;65.00;;;;;;5055143;28;20445;-93
2023/12/23 12:54:20;;;;;;;3.20;0.80;;;22.70;64.90;;;;;;5057932;28;20441;-93
2023/12/23 12:56:47;;;;;;;1.40;0.90;;;22.70;64.80;;;;;;5059354;28;20485;-93
2023/12/23 12:59:14;;;;;;;1.10;0.70;;;22.70;64.90;;;;;;5056618;28;20499;-96
2023/12/23 13:01:41;;;;;;;1.80;1.10;;;22.70;65.70;;;;;;5059095;28;20527;-96